Terminal Aerodrome Forecast
Issued by NWS Sioux Falls, SD

Home | Current Version | Previous Version | Graphics & Text | Print | Product List | Glossary Off
Versions: 1 2 3 4 5 6 7 8 9 10 11 12

437
FTUS43 KFSD 062320
TAFFSD
TAF
KFSD 062320Z 0700/0724 28020G28KT P6SM SCT250
     FM070600 29015G23KT P6SM SCT250
     FM071800 29018G26KT P6SM BKN035=

USA.gov is the U.S. government's official web portal to all federal, state and local government web resources and services.